Time;durP1;ratioP1;P1;durP2;ratioP2;P2;SDS_P1;SDS_P2;PMS_P1;PMS_P2;Temp;Humidity;BMP_temperature;BMP_pressure;BME280_temperature;BME280_humidity;BME280_pressure;Samples;Min_cycle;Max_cycle;Signal;HPM_P1;HPM_P2
2022/07/22 04:06:28;;;;;;;10.98;3.47;;;;;;;24.53;45.24;100623.91;5606696;31;78256;-57
2022/07/22 04:09:32;;;;;;;11.05;3.60;;;;;;;24.53;45.24;100623.91;5583707;31;33296;-58
2022/07/22 04:12:36;;;;;;;7.03;3.45;;;;;;;24.10;45.12;100630.63;5583570;31;33536;-57
2022/07/22 04:15:39;;;;;;;7.00;3.40;;;;;;;24.10;46.13;100623.22;5583619;31;34574;-58
2022/07/22 04:18:42;;;;;;;9.20;3.30;;;;;;;24.16;42.13;100618.22;5572353;32;34261;-58
2022/07/22 04:21:44;;;;;;;5.90;2.87;;;;;;;24.17;43.51;100622.53;5563619;32;33146;-58
2022/07/22 04:24:46;;;;;;;5.50;3.40;;;;;;;24.32;42.08;100620.84;5563842;32;33660;-58
2022/07/22 04:27:50;;;;;;;10.13;3.40;;;;;;;24.22;42.55;100626.94;5563972;32;33088;-58
2022/07/22 04:30:52;;;;;;;8.13;3.85;;;;;;;24.26;44.96;100614.88;5563703;32;33718;-58
2022/07/22 04:33:55;;;;;;;10.75;2.97;;;;;;;24.35;44.53;100629.09;5563927;32;34453;-58
2022/07/22 04:36:57;;;;;;;6.22;3.28;;;;;;;24.34;44.96;100624.00;5563606;32;33446;-58
2022/07/22 04:40:01;;;;;;;10.27;3.50;;;;;;;24.35;43.25;100612.66;5563696;32;34584;-58
2022/07/22 04:43:05;;;;;;;8.15;3.35;;;;;;;24.44;42.89;100617.94;5563786;32;34188;-58
2022/07/22 04:46:07;;;;;;;12.80;6.82;;;;;;;24.55;44.06;100605.16;5563563;32;33288;-58
2022/07/22 04:49:10;;;;;;;28.35;5.75;;;;;;;24.71;43.29;100609.69;5563620;32;33405;-58
2022/07/22 04:52:13;;;;;;;10.02;4.30;;;;;;;24.88;41.53;100613.84;5563364;32;34170;-58
2022/07/22 04:55:16;;;;;;;11.20;3.85;;;;;;;24.92;41.43;100611.94;5563265;32;33301;-58
2022/07/22 04:58:19;;;;;;;8.30;3.45;;;;;;;25.03;40.81;100612.84;5563262;32;33737;-58
2022/07/22 05:01:21;;;;;;;6.72;3.62;;;;;;;25.05;40.39;100613.28;5563383;32;34356;-58
2022/07/22 05:04:24;;;;;;;5.53;3.20;;;;;;;24.93;43.59;100616.25;5563061;32;34364;-58
2022/07/22 05:07:26;;;;;;;6.12;3.35;;;;;;;24.83;45.65;100615.75;5563283;32;33335;-58
2022/07/22 05:10:29;;;;;;;8.52;3.80;;;;;;;24.85;46.01;100612.63;5563315;32;33606;-58
2022/07/22 05:13:31;;;;;;;6.55;3.70;;;;;;;24.92;43.41;100618.19;5563341;32;33387;-58
2022/07/22 05:16:37;;;;;;;6.50;3.50;;;;;;;25.10;44.64;100623.94;5555725;32;33626;-58
2022/07/22 05:19:39;;;;;;;;;;;;;;;25.19;43.38;100615.44;5550458;32;34565;-58
2022/07/22 05:22:45;;;;;;;7.82;3.42;;;;;;;25.35;41.80;100616.00;5550103;32;34642;-58
2022/07/22 05:25:48;;;;;;;7.82;3.33;;;;;;;25.53;42.08;100616.22;5550389;32;33346;-58
2022/07/22 05:28:50;;;;;;;14.27;3.58;;;;;;;25.73;43.33;100616.81;5550158;32;33386;-58
2022/07/22 05:31:52;;;;;;;12.40;3.67;;;;;;;25.91;42.06;100623.28;5550227;32;34463;-58
2022/07/22 05:34:55;;;;;;;10.60;3.65;;;;;;;26.19;42.26;100630.19;5550103;32;33611;-58
2022/07/22 05:37:57;;;;;;;5.68;3.33;;;;;;;26.30;42.94;100631.06;5549973;32;34267;-58
2022/07/22 05:41:00;;;;;;;7.25;3.35;;;;;;;26.39;44.81;100626.03;5549909;32;33382;-58
2022/07/22 05:44:02;;;;;;;7.97;3.30;;;;;;;26.59;41.30;100623.84;5549992;32;33269;-58
2022/07/22 05:47:05;;;;;;;7.03;3.10;;;;;;;26.88;38.71;100626.75;5549759;32;33236;-58
2022/07/22 05:50:07;;;;;;;9.52;3.30;;;;;;;27.05;39.51;100633.50;5549938;32;31727;-58
2022/07/22 05:53:10;;;;;;;9.25;3.78;;;;;;;27.25;38.57;100632.06;5549741;32;33354;-58
2022/07/22 05:56:13;;;;;;;8.25;3.12;;;;;;;27.34;36.89;100634.44;5550126;32;33386;-58
2022/07/22 05:59:16;;;;;;;9.90;3.42;;;;;;;27.38;35.54;100635.22;5549851;32;33621;-58
2022/07/22 06:02:18;;;;;;;6.93;3.50;;;;;;;27.44;35.99;100632.91;5549618;32;34277;-58
2022/07/22 06:05:21;;;;;;;10.05;3.47;;;;;;;27.50;36.17;100637.63;5549521;32;33189;-58
2022/07/22 06:08:40;;;;;;;13.13;3.10;;;;;;;27.53;34.12;100631.34;5549447;32;34279;-58
2022/07/22 06:11:45;;;;;;;6.37;3.17;;;;;;;27.58;33.89;100630.97;5549586;32;34398;-58
2022/07/22 06:14:47;;;;;;;9.00;3.33;;;;;;;27.61;33.93;100637.66;5549422;32;33201;-58
2022/07/22 06:17:49;;;;;;;9.88;3.60;;;;;;;27.66;33.46;100644.75;5549464;32;34284;-59
2022/07/22 06:20:52;;;;;;;13.27;7.85;;;;;;;27.65;33.26;100638.47;5549355;32;33386;-58
2022/07/22 06:23:55;;;;;;;7.03;3.65;;;;;;;27.71;32.57;100647.91;5549432;32;34040;-58
2022/07/22 06:26:57;;;;;;;8.30;3.20;;;;;;;27.79;34.02;100648.75;5547674;32;33179;-58
2022/07/22 06:29:59;;;;;;;10.43;3.25;;;;;;;27.95;37.08;100651.94;5549005;32;33268;-58
2022/07/22 06:33:02;;;;;;;19.05;3.53;;;;;;;28.02;34.22;100642.88;5549254;32;33374;-58
2022/07/22 06:36:05;;;;;;;10.50;3.78;;;;;;;28.08;33.30;100644.06;5548256;32;33533;-58
2022/07/22 06:39:08;;;;;;;10.65;4.65;;;;;;;28.21;32.79;100638.91;5549085;32;33538;-58
2022/07/22 06:42:11;;;;;;;14.45;3.30;;;;;;;28.41;31.62;100637.37;5549197;32;33262;-58
2022/07/22 06:45:16;;;;;;;15.07;4.43;;;;;;;28.64;31.66;100639.69;5549071;32;33327;-58
2022/07/22 06:48:19;;;;;;;10.20;3.45;;;;;;;28.68;31.66;100634.97;5548752;32;34352;-58
2022/07/22 06:51:22;;;;;;;12.18;3.00;;;;;;;28.64;31.47;100634.16;5549079;32;34433;-58
2022/07/22 06:54:28;;;;;;;10.00;3.12;;;;;;;28.61;31.24;100636.94;5549151;32;34104;-58
2022/07/22 06:57:31;;;;;;;9.63;3.15;;;;;;;28.67;30.33;100636.13;5549156;32;33592;-58
2022/07/22 07:00:33;;;;;;;8.93;3.10;;;;;;;28.78;30.80;100639.66;5547874;32;34356;-59
2022/07/22 07:03:38;;;;;;;6.78;3.55;;;;;;;28.83;29.99;100630.19;5548675;32;33378;-58
2022/07/22 07:06:42;;;;;;;10.10;3.42;;;;;;;28.86;30.38;100632.16;5548250;32;33238;-58
2022/07/22 07:09:45;;;;;;;15.07;3.67;;;;;;;28.96;29.26;100627.78;5548869;32;33221;-58
2022/07/22 07:12:48;;;;;;;12.55;3.35;;;;;;;29.06;28.58;100634.50;5548844;32;34157;-58
2022/07/22 07:15:51;;;;;;;11.98;3.58;;;;;;;29.05;28.53;100632.91;5549196;32;33495;-58
2022/07/22 07:18:54;;;;;;;9.48;3.30;;;;;;;29.05;28.29;100630.16;5548615;32;33427;-58
2022/07/22 07:21:57;;;;;;;10.93;3.40;;;;;;;29.03;27.94;100625.81;5548745;32;33635;-58
2022/07/22 07:25:07;;;;;;;14.87;10.80;;;;;;;29.08;28.24;100627.37;5548665;32;33748;-58
2022/07/22 07:28:25;;;;;;;9.40;3.00;;;;;;;29.12;26.51;100638.41;5548715;32;33269;-58
2022/07/22 07:31:28;;;;;;;10.10;3.12;;;;;;;29.22;26.52;100632.84;5548807;32;33547;-58
2022/07/22 07:34:31;;;;;;;9.95;2.87;;;;;;;29.31;27.32;100635.16;5548680;32;34559;-58
2022/07/22 07:37:33;;;;;;;13.00;3.30;;;;;;;29.34;26.42;100631.59;5548761;32;34383;-58
2022/07/22 07:40:36;;;;;;;10.20;3.65;;;;;;;29.40;26.84;100631.94;5548179;32;33508;-58
2022/07/22 07:43:38;;;;;;;8.75;3.22;;;;;;;29.58;28.27;100616.06;5548654;32;33655;-59
2022/07/22 07:46:41;;;;;;;9.48;3.90;;;;;;;29.82;26.68;100624.63;5548431;32;33615;-58
2022/07/22 07:49:47;;;;;;;10.98;3.17;;;;;;;29.85;26.62;100623.81;5548572;32;33246;-58
2022/07/22 07:52:49;;;;;;;8.15;2.72;;;;;;;29.99;27.26;100631.22;5548653;32;33685;-58
2022/07/22 07:55:54;;;;;;;12.77;5.18;;;;;;;30.03;25.78;100626.44;5548565;32;34291;-58
2022/07/22 07:58:58;;;;;;;8.23;2.90;;;;;;;30.07;25.83;100621.69;5548387;32;34389;-59
2022/07/22 08:02:20;;;;;;;9.32;2.95;;;;;;;30.21;24.83;100621.56;5548276;32;33205;-58
2022/07/22 08:05:23;;;;;;;9.35;2.95;;;;;;;30.26;24.85;100620.34;5547651;32;33239;-58
2022/07/22 08:08:26;;;;;;;9.00;3.28;;;;;;;30.34;25.40;100614.34;5548141;32;33322;-56
2022/07/22 08:11:30;;;;;;;11.98;4.87;;;;;;;30.46;25.23;100623.31;5548232;32;33517;-56
2022/07/22 08:14:32;;;;;;;7.18;2.87;;;;;;;30.48;24.71;100621.72;5547933;32;34302;-56
2022/07/22 08:17:36;;;;;;;8.35;3.00;;;;;;;30.51;24.10;100609.81;5547631;32;34540;-56
2022/07/22 08:20:38;;;;;;;10.55;2.80;;;;;;;30.60;24.52;100607.38;5547991;32;33266;-56
2022/07/22 08:23:40;;;;;;;8.43;2.50;;;;;;;30.70;24.52;100608.44;5546476;32;33329;-56
2022/07/22 08:26:46;;;;;;;6.50;2.72;;;;;;;30.66;25.57;100608.50;5547226;32;33523;-56
2022/07/22 09:12:53;;;;;;;3.20;2.25;;;;;;;31.18;24.43;100595.63;5604304;31;268756;-58
2022/07/22 09:15:56;;;;;;;4.03;1.98;;;;;;;31.12;23.17;100596.06;5603196;31;33068;-58
2022/07/22 09:18:59;;;;;;;7.75;2.70;;;;;;;31.20;23.36;100588.47;5590241;31;33320;-59
2022/07/22 09:22:04;;;;;;;6.25;2.45;;;;;;;31.29;23.07;100588.75;5583833;31;33337;-58
2022/07/22 09:25:18;;;;;;;;;;;;;;;31.35;23.32;100587.09;5584001;31;33421;-58
2022/07/22 09:28:24;;;;;;;6.20;2.62;;;;;;;31.41;23.08;100581.09;5583860;31;33283;-59
2022/07/22 09:31:36;;;;;;;8.07;2.33;;;;;;;31.51;23.33;100585.69;5583753;31;33412;-59
2022/07/22 09:34:40;;;;;;;5.85;2.20;;;;;;;31.47;22.44;100580.19;5583587;31;33183;-59
2022/07/22 09:37:57;;;;;;;7.03;2.78;;;;;;;31.61;22.31;100576.41;5583548;32;33449;-58
2022/07/22 09:40:59;;;;;;;7.85;2.50;;;;;;;31.68;22.42;100587.38;5583467;31;33559;-58
2022/07/22 09:44:21;;;;;;;7.30;2.70;;;;;;;31.81;22.71;100582.81;5583629;32;33375;-59
2022/07/22 09:47:29;;;;;;;8.15;2.60;;;;;;;31.78;22.75;100571.78;5583498;31;34219;-59
2022/07/22 09:50:40;;;;;;;7.55;2.40;;;;;;;31.91;22.49;100578.34;5583404;31;34248;-58
2022/07/22 09:53:44;;;;;;;4.18;2.83;;;;;;;31.89;22.53;100574.41;5583465;31;34099;-59
